Anchor Bay, California
Current Conditions -  °F | °C
As of 6:40 AM on Saturday 25 Oct 2014 (Local Time) from KUKI Reporting Station
Light Rain Light Rain  
Wind Chill: 57°   Ceiling: 2400
Heat Index: 57°   Visibility: 6mi
Dew Point: 54°   Wind: 9mph
Humidity: 89%   Direction: 160°SSE
Pressure: 29.87"   Gusts: NA
Location:  38.8361°N, 123.43°W
Report Text: KUKI 251340Z AUTO 16008KT 6SM -RA BR FEW018 BKN024 OVC030 14/12 A2987 RMK AO2 RAB11 P0002 T01390122
Loading
Personal Weather Stations






























Interactive Weather Map
Tropical Storm Tracking
New forecast layout! Learn more

10-Day Weather Forecast

Advertisements
Track Severe Weather on mobile